sensor_id;sensor_type;location;lat;lon;timestamp;P1;durP1;ratioP1;P2;durP2;ratioP2
19285;SDS011;9776;50.798;6.430;2023-11-21T00:01:23;13.73;;;6.95;;
19285;SDS011;9776;50.798;6.430;2023-11-21T00:03:50;11.43;;;6.38;;
19285;SDS011;9776;50.798;6.430;2023-11-21T00:06:19;11.60;;;6.85;;
19285;SDS011;9776;50.798;6.430;2023-11-21T00:08:46;12.88;;;7.55;;
19285;SDS011;9776;50.798;6.430;2023-11-21T00:11:12;13.40;;;8.10;;
19285;SDS011;9776;50.798;6.430;2023-11-21T00:13:39;13.32;;;7.55;;
19285;SDS011;9776;50.798;6.430;2023-11-21T00:16:12;14.73;;;8.50;;
19285;SDS011;9776;50.798;6.430;2023-11-21T00:18:39;16.17;;;8.10;;
19285;SDS011;9776;50.798;6.430;2023-11-21T00:21:06;12.93;;;7.80;;
19285;SDS011;9776;50.798;6.430;2023-11-21T00:23:33;17.92;;;8.57;;
19285;SDS011;9776;50.798;6.430;2023-11-21T00:25:59;14.80;;;8.07;;
19285;SDS011;9776;50.798;6.430;2023-11-21T00:28:26;15.75;;;8.05;;
19285;SDS011;9776;50.798;6.430;2023-11-21T00:30:53;16.50;;;8.88;;
19285;SDS011;9776;50.798;6.430;2023-11-21T00:33:21;16.15;;;8.10;;
19285;SDS011;9776;50.798;6.430;2023-11-21T00:35:48;14.80;;;7.82;;
19285;SDS011;9776;50.798;6.430;2023-11-21T00:38:15;16.77;;;8.68;;
19285;SDS011;9776;50.798;6.430;2023-11-21T00:40:45;13.00;;;8.13;;
19285;SDS011;9776;50.798;6.430;2023-11-21T00:43:12;10.43;;;7.57;;
19285;SDS011;9776;50.798;6.430;2023-11-21T00:45:40;17.05;;;8.30;;
19285;SDS011;9776;50.798;6.430;2023-11-21T00:48:06;16.50;;;8.80;;
19285;SDS011;9776;50.798;6.430;2023-11-21T00:50:35;13.38;;;8.25;;
19285;SDS011;9776;50.798;6.430;2023-11-21T00:53:02;15.05;;;8.45;;
19285;SDS011;9776;50.798;6.430;2023-11-21T00:55:28;14.95;;;7.45;;
19285;SDS011;9776;50.798;6.430;2023-11-21T00:57:55;13.88;;;7.07;;
19285;SDS011;9776;50.798;6.430;2023-11-21T01:00:23;12.52;;;7.43;;
19285;SDS011;9776;50.798;6.430;2023-11-21T01:02:50;15.93;;;8.20;;
19285;SDS011;9776;50.798;6.430;2023-11-21T01:05:16;14.75;;;7.78;;
19285;SDS011;9776;50.798;6.430;2023-11-21T01:07:44;13.18;;;7.88;;
19285;SDS011;9776;50.798;6.430;2023-11-21T01:10:11;15.38;;;8.57;;
19285;SDS011;9776;50.798;6.430;2023-11-21T01:12:38;14.98;;;8.13;;
19285;SDS011;9776;50.798;6.430;2023-11-21T01:15:05;14.50;;;8.65;;
19285;SDS011;9776;50.798;6.430;2023-11-21T01:17:33;15.77;;;8.88;;
19285;SDS011;9776;50.798;6.430;2023-11-21T01:20:00;19.33;;;8.98;;
19285;SDS011;9776;50.798;6.430;2023-11-21T01:22:28;16.52;;;8.95;;
19285;SDS011;9776;50.798;6.430;2023-11-21T01:24:56;18.40;;;9.13;;
19285;SDS011;9776;50.798;6.430;2023-11-21T01:27:24;13.80;;;8.43;;
19285;SDS011;9776;50.798;6.430;2023-11-21T01:29:51;16.52;;;9.13;;
19285;SDS011;9776;50.798;6.430;2023-11-21T01:32:18;18.38;;;9.68;;
19285;SDS011;9776;50.798;6.430;2023-11-21T01:34:45;16.95;;;8.52;;
19285;SDS011;9776;50.798;6.430;2023-11-21T01:37:14;16.30;;;8.88;;
19285;SDS011;9776;50.798;6.430;2023-11-21T01:39:42;19.25;;;9.43;;
19285;SDS011;9776;50.798;6.430;2023-11-21T01:42:11;16.75;;;8.90;;
19285;SDS011;9776;50.798;6.430;2023-11-21T01:44:38;12.77;;;7.90;;
19285;SDS011;9776;50.798;6.430;2023-11-21T01:47:05;18.25;;;9.00;;
19285;SDS011;9776;50.798;6.430;2023-11-21T01:49:33;15.30;;;8.32;;
19285;SDS011;9776;50.798;6.430;2023-11-21T01:52:00;14.70;;;8.38;;
19285;SDS011;9776;50.798;6.430;2023-11-21T01:54:28;19.38;;;8.45;;
19285;SDS011;9776;50.798;6.430;2023-11-21T01:56:56;20.25;;;9.25;;
19285;SDS011;9776;50.798;6.430;2023-11-21T01:59:29;16.88;;;8.02;;
19285;SDS011;9776;50.798;6.430;2023-11-21T02:02:02;17.30;;;9.05;;
19285;SDS011;9776;50.798;6.430;2023-11-21T02:04:29;21.90;;;8.70;;
19285;SDS011;9776;50.798;6.430;2023-11-21T02:06:57;21.20;;;8.93;;
19285;SDS011;9776;50.798;6.430;2023-11-21T02:09:25;15.60;;;8.18;;
19285;SDS011;9776;50.798;6.430;2023-11-21T02:11:52;16.23;;;7.82;;
19285;SDS011;9776;50.798;6.430;2023-11-21T02:14:20;14.50;;;7.10;;
19285;SDS011;9776;50.798;6.430;2023-11-21T02:16:48;15.05;;;7.60;;
19285;SDS011;9776;50.798;6.430;2023-11-21T02:19:17;11.13;;;6.38;;
19285;SDS011;9776;50.798;6.430;2023-11-21T02:21:48;11.15;;;5.68;;
19285;SDS011;9776;50.798;6.430;2023-11-21T02:24:18;14.35;;;6.40;;
19285;SDS011;9776;50.798;6.430;2023-11-21T02:26:45;9.63;;;5.63;;
19285;SDS011;9776;50.798;6.430;2023-11-21T02:29:12;10.77;;;5.78;;
19285;SDS011;9776;50.798;6.430;2023-11-21T02:31:43;11.52;;;5.60;;
19285;SDS011;9776;50.798;6.430;2023-11-21T02:34:13;11.25;;;5.70;;
19285;SDS011;9776;50.798;6.430;2023-11-21T02:36:40;11.80;;;5.10;;
19285;SDS011;9776;50.798;6.430;2023-11-21T02:39:07;10.93;;;5.93;;
19285;SDS011;9776;50.798;6.430;2023-11-21T02:41:35;12.02;;;5.68;;
19285;SDS011;9776;50.798;6.430;2023-11-21T02:44:03;12.50;;;6.15;;
19285;SDS011;9776;50.798;6.430;2023-11-21T02:46:31;15.43;;;6.47;;
19285;SDS011;9776;50.798;6.430;2023-11-21T02:48:58;12.63;;;6.50;;
19285;SDS011;9776;50.798;6.430;2023-11-21T02:51:25;13.63;;;6.10;;
19285;SDS011;9776;50.798;6.430;2023-11-21T02:53:52;12.82;;;6.25;;
19285;SDS011;9776;50.798;6.430;2023-11-21T02:56:19;12.05;;;5.88;;
19285;SDS011;9776;50.798;6.430;2023-11-21T02:58:47;11.25;;;6.30;;
19285;SDS011;9776;50.798;6.430;2023-11-21T03:01:14;15.73;;;6.15;;
19285;SDS011;9776;50.798;6.430;2023-11-21T03:03:42;12.57;;;6.05;;
19285;SDS011;9776;50.798;6.430;2023-11-21T03:06:12;11.43;;;6.38;;
19285;SDS011;9776;50.798;6.430;2023-11-21T03:08:39;11.48;;;6.10;;
19285;SDS011;9776;50.798;6.430;2023-11-21T03:11:07;15.50;;;6.05;;
19285;SDS011;9776;50.798;6.430;2023-11-21T03:13:34;13.73;;;6.28;;
19285;SDS011;9776;50.798;6.430;2023-11-21T03:16:02;12.90;;;6.13;;
19285;SDS011;9776;50.798;6.430;2023-11-21T03:18:29;12.50;;;6.63;;
19285;SDS011;9776;50.798;6.430;2023-11-21T03:20:57;12.50;;;6.53;;
19285;SDS011;9776;50.798;6.430;2023-11-21T03:23:23;12.93;;;6.78;;
19285;SDS011;9776;50.798;6.430;2023-11-21T03:25:50;13.50;;;6.40;;
19285;SDS011;9776;50.798;6.430;2023-11-21T03:28:17;15.13;;;6.30;;
19285;SDS011;9776;50.798;6.430;2023-11-21T03:30:44;13.15;;;6.75;;
19285;SDS011;9776;50.798;6.430;2023-11-21T03:33:12;15.15;;;6.43;;
19285;SDS011;9776;50.798;6.430;2023-11-21T03:35:39;12.82;;;6.15;;
19285;SDS011;9776;50.798;6.430;2023-11-21T03:38:07;12.90;;;5.80;;
19285;SDS011;9776;50.798;6.430;2023-11-21T03:40:33;11.90;;;6.28;;
19285;SDS011;9776;50.798;6.430;2023-11-21T03:43:00;13.73;;;6.60;;
19285;SDS011;9776;50.798;6.430;2023-11-21T03:45:27;11.80;;;5.60;;
19285;SDS011;9776;50.798;6.430;2023-11-21T03:47:54;12.10;;;6.32;;
19285;SDS011;9776;50.798;6.430;2023-11-21T03:50:28;11.38;;;5.88;;
19285;SDS011;9776;50.798;6.430;2023-11-21T03:52:57;13.75;;;6.07;;
19285;SDS011;9776;50.798;6.430;2023-11-21T03:55:24;11.52;;;5.82;;
19285;SDS011;9776;50.798;6.430;2023-11-21T03:57:51;13.02;;;6.15;;
19285;SDS011;9776;50.798;6.430;2023-11-21T04:00:18;10.85;;;5.88;;
19285;SDS011;9776;50.798;6.430;2023-11-21T04:02:46;13.45;;;6.07;;
19285;SDS011;9776;50.798;6.430;2023-11-21T04:05:13;12.32;;;6.15;;
19285;SDS011;9776;50.798;6.430;2023-11-21T04:07:41;11.98;;;5.93;;
19285;SDS011;9776;50.798;6.430;2023-11-21T04:10:08;12.25;;;5.88;;
19285;SDS011;9776;50.798;6.430;2023-11-21T04:12:37;11.55;;;6.25;;
19285;SDS011;9776;50.798;6.430;2023-11-21T04:15:05;11.48;;;6.15;;
19285;SDS011;9776;50.798;6.430;2023-11-21T04:17:34;12.60;;;6.70;;
19285;SDS011;9776;50.798;6.430;2023-11-21T04:20:02;11.55;;;6.03;;
19285;SDS011;9776;50.798;6.430;2023-11-21T04:22:33;15.00;;;6.38;;
19285;SDS011;9776;50.798;6.430;2023-11-21T04:25:01;13.45;;;6.47;;
19285;SDS011;9776;50.798;6.430;2023-11-21T04:27:28;11.13;;;6.20;;
19285;SDS011;9776;50.798;6.430;2023-11-21T04:29:55;12.98;;;6.43;;
19285;SDS011;9776;50.798;6.430;2023-11-21T04:32:22;15.60;;;7.15;;
19285;SDS011;9776;50.798;6.430;2023-11-21T04:34:49;11.98;;;6.28;;
19285;SDS011;9776;50.798;6.430;2023-11-21T04:37:16;14.70;;;6.55;;
19285;SDS011;9776;50.798;6.430;2023-11-21T04:39:42;13.25;;;6.55;;
19285;SDS011;9776;50.798;6.430;2023-11-21T04:42:10;14.32;;;7.13;;
19285;SDS011;9776;50.798;6.430;2023-11-21T04:44:37;15.30;;;6.50;;
19285;SDS011;9776;50.798;6.430;2023-11-21T04:47:06;12.43;;;5.90;;
19285;SDS011;9776;50.798;6.430;2023-11-21T04:49:33;10.82;;;6.18;;
19285;SDS011;9776;50.798;6.430;2023-11-21T04:51:59;11.43;;;6.13;;
19285;SDS011;9776;50.798;6.430;2023-11-21T04:54:28;14.10;;;6.97;;
19285;SDS011;9776;50.798;6.430;2023-11-21T04:56:56;14.90;;;6.80;;
19285;SDS011;9776;50.798;6.430;2023-11-21T04:59:25;15.43;;;6.57;;
19285;SDS011;9776;50.798;6.430;2023-11-21T05:01:52;13.32;;;6.63;;
19285;SDS011;9776;50.798;6.430;2023-11-21T05:04:19;16.48;;;7.13;;
19285;SDS011;9776;50.798;6.430;2023-11-21T05:06:47;13.18;;;6.85;;
19285;SDS011;9776;50.798;6.430;2023-11-21T05:09:14;13.48;;;6.75;;
19285;SDS011;9776;50.798;6.430;2023-11-21T05:11:41;14.07;;;6.75;;
19285;SDS011;9776;50.798;6.430;2023-11-21T05:14:08;12.38;;;6.07;;
19285;SDS011;9776;50.798;6.430;2023-11-21T05:16:36;13.68;;;7.15;;
19285;SDS011;9776;50.798;6.430;2023-11-21T05:19:03;14.43;;;7.20;;
19285;SDS011;9776;50.798;6.430;2023-11-21T05:21:31;14.68;;;6.53;;
19285;SDS011;9776;50.798;6.430;2023-11-21T05:23:58;14.48;;;7.05;;
19285;SDS011;9776;50.798;6.430;2023-11-21T05:26:25;14.02;;;7.25;;
19285;SDS011;9776;50.798;6.430;2023-11-21T05:28:52;14.50;;;6.55;;
19285;SDS011;9776;50.798;6.430;2023-11-21T05:31:19;13.50;;;6.43;;
19285;SDS011;9776;50.798;6.430;2023-11-21T05:33:47;14.35;;;6.80;;
19285;SDS011;9776;50.798;6.430;2023-11-21T05:36:14;11.98;;;6.40;;
19285;SDS011;9776;50.798;6.430;2023-11-21T05:38:41;13.88;;;6.65;;
19285;SDS011;9776;50.798;6.430;2023-11-21T05:41:07;14.55;;;6.97;;
19285;SDS011;9776;50.798;6.430;2023-11-21T05:43:38;15.02;;;6.57;;
19285;SDS011;9776;50.798;6.430;2023-11-21T05:46:05;14.68;;;7.30;;
19285;SDS011;9776;50.798;6.430;2023-11-21T05:48:34;13.82;;;6.60;;
19285;SDS011;9776;50.798;6.430;2023-11-21T05:51:03;14.65;;;6.75;;
19285;SDS011;9776;50.798;6.430;2023-11-21T05:53:30;13.25;;;6.53;;
19285;SDS011;9776;50.798;6.430;2023-11-21T05:55:57;12.55;;;6.32;;
19285;SDS011;9776;50.798;6.430;2023-11-21T05:58:23;14.07;;;7.20;;
19285;SDS011;9776;50.798;6.430;2023-11-21T06:00:50;11.73;;;6.15;;
19285;SDS011;9776;50.798;6.430;2023-11-21T06:03:18;12.55;;;6.32;;
19285;SDS011;9776;50.798;6.430;2023-11-21T06:05:45;13.45;;;5.95;;
19285;SDS011;9776;50.798;6.430;2023-11-21T06:08:13;14.90;;;6.60;;
19285;SDS011;9776;50.798;6.430;2023-11-21T06:10:41;12.52;;;6.20;;
19285;SDS011;9776;50.798;6.430;2023-11-21T06:13:08;11.25;;;6.50;;
19285;SDS011;9776;50.798;6.430;2023-11-21T06:15:35;14.88;;;6.38;;
19285;SDS011;9776;50.798;6.430;2023-11-21T06:18:03;14.60;;;6.53;;
19285;SDS011;9776;50.798;6.430;2023-11-21T06:20:35;10.43;;;5.97;;
19285;SDS011;9776;50.798;6.430;2023-11-21T06:23:03;15.48;;;6.68;;
19285;SDS011;9776;50.798;6.430;2023-11-21T06:25:32;14.32;;;6.55;;
19285;SDS011;9776;50.798;6.430;2023-11-21T06:28:01;13.27;;;6.60;;
19285;SDS011;9776;50.798;6.430;2023-11-21T06:30:28;13.98;;;7.32;;
19285;SDS011;9776;50.798;6.430;2023-11-21T06:32:55;15.90;;;7.32;;
19285;SDS011;9776;50.798;6.430;2023-11-21T06:35:22;15.55;;;7.35;;
19285;SDS011;9776;50.798;6.430;2023-11-21T06:37:52;16.77;;;7.05;;
19285;SDS011;9776;50.798;6.430;2023-11-21T06:40:22;15.15;;;7.78;;
19285;SDS011;9776;50.798;6.430;2023-11-21T06:42:51;16.63;;;8.15;;
19285;SDS011;9776;50.798;6.430;2023-11-21T06:45:18;25.02;;;13.38;;
19285;SDS011;9776;50.798;6.430;2023-11-21T06:47:46;19.45;;;8.85;;
19285;SDS011;9776;50.798;6.430;2023-11-21T06:50:14;17.27;;;8.73;;
19285;SDS011;9776;50.798;6.430;2023-11-21T06:52:41;16.35;;;8.32;;
19285;SDS011;9776;50.798;6.430;2023-11-21T06:55:08;18.80;;;8.20;;
19285;SDS011;9776;50.798;6.430;2023-11-21T06:57:35;17.88;;;8.60;;
19285;SDS011;9776;50.798;6.430;2023-11-21T07:00:05;16.50;;;8.80;;
19285;SDS011;9776;50.798;6.430;2023-11-21T07:02:34;20.55;;;9.13;;
19285;SDS011;9776;50.798;6.430;2023-11-21T07:05:01;16.75;;;7.93;;
19285;SDS011;9776;50.798;6.430;2023-11-21T07:07:28;17.10;;;8.27;;
19285;SDS011;9776;50.798;6.430;2023-11-21T07:09:58;18.88;;;8.13;;
19285;SDS011;9776;50.798;6.430;2023-11-21T07:12:28;16.10;;;8.65;;
19285;SDS011;9776;50.798;6.430;2023-11-21T07:14:56;18.92;;;9.07;;
19285;SDS011;9776;50.798;6.430;2023-11-21T07:17:29;15.90;;;8.35;;
19285;SDS011;9776;50.798;6.430;2023-11-21T07:19:56;17.80;;;9.23;;
19285;SDS011;9776;50.798;6.430;2023-11-21T07:22:23;17.35;;;8.23;;
19285;SDS011;9776;50.798;6.430;2023-11-21T07:24:50;17.55;;;8.98;;
19285;SDS011;9776;50.798;6.430;2023-11-21T07:27:17;15.95;;;7.75;;
19285;SDS011;9776;50.798;6.430;2023-11-21T07:29:47;20.40;;;9.15;;
19285;SDS011;9776;50.798;6.430;2023-11-21T07:32:17;17.73;;;8.90;;
19285;SDS011;9776;50.798;6.430;2023-11-21T07:34:45;18.00;;;8.63;;
19285;SDS011;9776;50.798;6.430;2023-11-21T07:37:13;16.90;;;8.55;;
19285;SDS011;9776;50.798;6.430;2023-11-21T07:39:40;20.20;;;12.02;;
19285;SDS011;9776;50.798;6.430;2023-11-21T07:42:07;18.45;;;9.48;;
19285;SDS011;9776;50.798;6.430;2023-11-21T07:44:35;16.27;;;8.45;;
19285;SDS011;9776;50.798;6.430;2023-11-21T07:47:02;18.85;;;8.75;;
19285;SDS011;9776;50.798;6.430;2023-11-21T07:49:29;17.15;;;8.15;;
19285;SDS011;9776;50.798;6.430;2023-11-21T07:51:58;16.50;;;8.70;;
19285;SDS011;9776;50.798;6.430;2023-11-21T07:54:25;20.20;;;9.15;;
19285;SDS011;9776;50.798;6.430;2023-11-21T07:56:53;17.38;;;9.00;;
19285;SDS011;9776;50.798;6.430;2023-11-21T07:59:19;18.45;;;9.07;;
19285;SDS011;9776;50.798;6.430;2023-11-21T08:01:46;20.30;;;9.10;;
19285;SDS011;9776;50.798;6.430;2023-11-21T08:04:13;20.92;;;9.70;;
19285;SDS011;9776;50.798;6.430;2023-11-21T08:06:40;19.58;;;9.02;;
19285;SDS011;9776;50.798;6.430;2023-11-21T08:09:08;19.88;;;9.98;;
19285;SDS011;9776;50.798;6.430;2023-11-21T08:11:37;18.77;;;9.18;;
19285;SDS011;9776;50.798;6.430;2023-11-21T08:14:04;23.88;;;10.10;;
19285;SDS011;9776;50.798;6.430;2023-11-21T08:16:30;21.60;;;9.35;;
19285;SDS011;9776;50.798;6.430;2023-11-21T08:18:58;20.95;;;10.18;;
19285;SDS011;9776;50.798;6.430;2023-11-21T08:21:25;22.15;;;9.70;;
19285;SDS011;9776;50.798;6.430;2023-11-21T08:23:54;20.67;;;9.27;;
19285;SDS011;9776;50.798;6.430;2023-11-21T08:26:26;20.25;;;9.60;;
19285;SDS011;9776;50.798;6.430;2023-11-21T08:28:53;20.67;;;9.70;;
19285;SDS011;9776;50.798;6.430;2023-11-21T08:31:24;20.33;;;9.20;;
19285;SDS011;9776;50.798;6.430;2023-11-21T08:33:52;21.90;;;10.02;;
19285;SDS011;9776;50.798;6.430;2023-11-21T08:36:20;20.65;;;9.63;;
19285;SDS011;9776;50.798;6.430;2023-11-21T08:38:48;21.45;;;9.95;;
19285;SDS011;9776;50.798;6.430;2023-11-21T08:41:17;21.05;;;10.40;;
19285;SDS011;9776;50.798;6.430;2023-11-21T08:43:47;21.85;;;10.65;;
19285;SDS011;9776;50.798;6.430;2023-11-21T08:46:14;23.27;;;10.57;;
19285;SDS011;9776;50.798;6.430;2023-11-21T08:48:42;22.45;;;10.75;;
19285;SDS011;9776;50.798;6.430;2023-11-21T08:51:09;22.58;;;10.75;;
19285;SDS011;9776;50.798;6.430;2023-11-21T08:53:39;23.33;;;10.90;;
19285;SDS011;9776;50.798;6.430;2023-11-21T08:56:06;23.25;;;9.85;;
19285;SDS011;9776;50.798;6.430;2023-11-21T08:58:34;27.40;;;10.95;;
19285;SDS011;9776;50.798;6.430;2023-11-21T09:01:03;23.98;;;10.70;;
19285;SDS011;9776;50.798;6.430;2023-11-21T09:03:31;21.45;;;9.80;;
19285;SDS011;9776;50.798;6.430;2023-11-21T09:05:59;20.85;;;9.55;;
19285;SDS011;9776;50.798;6.430;2023-11-21T09:08:26;20.20;;;9.88;;
19285;SDS011;9776;50.798;6.430;2023-11-21T09:10:54;23.52;;;10.02;;
19285;SDS011;9776;50.798;6.430;2023-11-21T09:13:21;22.20;;;9.55;;
19285;SDS011;9776;50.798;6.430;2023-11-21T09:15:50;21.02;;;9.68;;
19285;SDS011;9776;50.798;6.430;2023-11-21T09:18:18;21.83;;;9.57;;
19285;SDS011;9776;50.798;6.430;2023-11-21T09:20:45;32.50;;;16.27;;
19285;SDS011;9776;50.798;6.430;2023-11-21T09:23:12;25.02;;;11.20;;
19285;SDS011;9776;50.798;6.430;2023-11-21T09:25:39;23.80;;;11.27;;
19285;SDS011;9776;50.798;6.430;2023-11-21T09:28:06;24.42;;;10.35;;
19285;SDS011;9776;50.798;6.430;2023-11-21T09:30:33;24.40;;;10.55;;
19285;SDS011;9776;50.798;6.430;2023-11-21T09:33:00;24.33;;;10.75;;
19285;SDS011;9776;50.798;6.430;2023-11-21T09:35:28;26.15;;;14.48;;
19285;SDS011;9776;50.798;6.430;2023-11-21T09:37:55;26.95;;;12.60;;
19285;SDS011;9776;50.798;6.430;2023-11-21T09:40:22;30.27;;;16.65;;
19285;SDS011;9776;50.798;6.430;2023-11-21T09:42:49;28.50;;;14.82;;
19285;SDS011;9776;50.798;6.430;2023-11-21T09:45:24;31.08;;;16.50;;
19285;SDS011;9776;50.798;6.430;2023-11-21T09:47:52;20.92;;;10.00;;
19285;SDS011;9776;50.798;6.430;2023-11-21T09:50:21;24.58;;;10.75;;
19285;SDS011;9776;50.798;6.430;2023-11-21T09:52:53;23.60;;;11.18;;
19285;SDS011;9776;50.798;6.430;2023-11-21T09:55:26;22.92;;;9.70;;
19285;SDS011;9776;50.798;6.430;2023-11-21T09:57:56;21.15;;;9.68;;
19285;SDS011;9776;50.798;6.430;2023-11-21T10:00:23;23.05;;;9.82;;
19285;SDS011;9776;50.798;6.430;2023-11-21T10:02:52;20.73;;;9.02;;
19285;SDS011;9776;50.798;6.430;2023-11-21T10:05:20;23.55;;;9.13;;
19285;SDS011;9776;50.798;6.430;2023-11-21T10:07:48;23.42;;;11.38;;
19285;SDS011;9776;50.798;6.430;2023-11-21T10:10:19;22.15;;;10.23;;
19285;SDS011;9776;50.798;6.430;2023-11-21T10:12:48;24.88;;;10.18;;
19285;SDS011;9776;50.798;6.430;2023-11-21T10:15:18;24.13;;;11.27;;
19285;SDS011;9776;50.798;6.430;2023-11-21T10:17:48;27.20;;;10.00;;
19285;SDS011;9776;50.798;6.430;2023-11-21T10:20:18;22.15;;;9.80;;
19285;SDS011;9776;50.798;6.430;2023-11-21T10:22:46;23.85;;;10.18;;
19285;SDS011;9776;50.798;6.430;2023-11-21T10:25:17;30.05;;;12.48;;
19285;SDS011;9776;50.798;6.430;2023-11-21T10:27:47;27.63;;;12.50;;
19285;SDS011;9776;50.798;6.430;2023-11-21T10:30:16;41.28;;;19.38;;
19285;SDS011;9776;50.798;6.430;2023-11-21T10:32:43;34.17;;;19.30;;
19285;SDS011;9776;50.798;6.430;2023-11-21T10:35:10;42.65;;;21.30;;
19285;SDS011;9776;50.798;6.430;2023-11-21T10:37:37;35.08;;;18.20;;
19285;SDS011;9776;50.798;6.430;2023-11-21T10:40:05;29.88;;;16.67;;
19285;SDS011;9776;50.798;6.430;2023-11-21T10:42:34;29.75;;;15.18;;
19285;SDS011;9776;50.798;6.430;2023-11-21T10:45:03;20.55;;;9.32;;
19285;SDS011;9776;50.798;6.430;2023-11-21T10:47:34;17.92;;;8.63;;
19285;SDS011;9776;50.798;6.430;2023-11-21T10:50:02;21.13;;;9.88;;
19285;SDS011;9776;50.798;6.430;2023-11-21T10:52:30;22.42;;;8.55;;
19285;SDS011;9776;50.798;6.430;2023-11-21T10:54:58;17.98;;;8.38;;
19285;SDS011;9776;50.798;6.430;2023-11-21T10:57:29;18.83;;;6.72;;
19285;SDS011;9776;50.798;6.430;2023-11-21T10:59:58;17.88;;;8.35;;
19285;SDS011;9776;50.798;6.430;2023-11-21T11:02:25;18.08;;;7.47;;
19285;SDS011;9776;50.798;6.430;2023-11-21T11:04:53;25.05;;;11.18;;
19285;SDS011;9776;50.798;6.430;2023-11-21T11:07:21;21.17;;;9.48;;
19285;SDS011;9776;50.798;6.430;2023-11-21T11:09:52;21.13;;;9.00;;
19285;SDS011;9776;50.798;6.430;2023-11-21T11:12:19;17.88;;;7.65;;
19285;SDS011;9776;50.798;6.430;2023-11-21T11:14:46;18.30;;;8.18;;
19285;SDS011;9776;50.798;6.430;2023-11-21T11:17:15;17.85;;;7.30;;
19285;SDS011;9776;50.798;6.430;2023-11-21T11:19:45;20.13;;;7.43;;
19285;SDS011;9776;50.798;6.430;2023-11-21T11:22:19;18.73;;;7.40;;
19285;SDS011;9776;50.798;6.430;2023-11-21T11:25:15;15.82;;;6.32;;
19285;SDS011;9776;50.798;6.430;2023-11-21T11:27:52;16.95;;;5.47;;
19285;SDS011;9776;50.798;6.430;2023-11-21T11:30:28;16.38;;;6.95;;
19285;SDS011;9776;50.798;6.430;2023-11-21T11:33:12;18.50;;;5.97;;
19285;SDS011;9776;50.798;6.430;2023-11-21T11:35:52;16.20;;;6.53;;
19285;SDS011;9776;50.798;6.430;2023-11-21T11:38:23;16.67;;;6.88;;
19285;SDS011;9776;50.798;6.430;2023-11-21T11:41:00;18.92;;;6.63;;
19285;SDS011;9776;50.798;6.430;2023-11-21T11:43:29;16.02;;;6.63;;
19285;SDS011;9776;50.798;6.430;2023-11-21T11:45:57;14.88;;;6.55;;
19285;SDS011;9776;50.798;6.430;2023-11-21T11:48:26;15.60;;;6.65;;
19285;SDS011;9776;50.798;6.430;2023-11-21T11:51:02;16.02;;;6.75;;
19285;SDS011;9776;50.798;6.430;2023-11-21T11:53:35;19.05;;;6.18;;
19285;SDS011;9776;50.798;6.430;2023-11-21T11:58:51;16.15;;;5.85;;
19285;SDS011;9776;50.798;6.430;2023-11-21T12:01:19;12.77;;;5.78;;
19285;SDS011;9776;50.798;6.430;2023-11-21T12:06:50;17.52;;;6.65;;
19285;SDS011;9776;50.798;6.430;2023-11-21T12:09:18;17.63;;;10.13;;
19285;SDS011;9776;50.798;6.430;2023-11-21T12:11:46;15.63;;;7.80;;
19285;SDS011;9776;50.798;6.430;2023-11-21T12:14:13;17.27;;;8.05;;
19285;SDS011;9776;50.798;6.430;2023-11-21T12:16:40;13.90;;;5.40;;
19285;SDS011;9776;50.798;6.430;2023-11-21T12:19:08;13.65;;;6.32;;
19285;SDS011;9776;50.798;6.430;2023-11-21T12:21:36;17.08;;;6.57;;
19285;SDS011;9776;50.798;6.430;2023-11-21T12:24:05;15.13;;;5.75;;
19285;SDS011;9776;50.798;6.430;2023-11-21T12:26:38;13.25;;;5.50;;
19285;SDS011;9776;50.798;6.430;2023-11-21T12:29:06;16.98;;;6.50;;
19285;SDS011;9776;50.798;6.430;2023-11-21T12:31:33;17.27;;;6.88;;
19285;SDS011;9776;50.798;6.430;2023-11-21T12:34:06;15.27;;;5.55;;
19285;SDS011;9776;50.798;6.430;2023-11-21T12:36:36;12.80;;;5.88;;
19285;SDS011;9776;50.798;6.430;2023-11-21T12:39:07;13.98;;;5.82;;
19285;SDS011;9776;50.798;6.430;2023-11-21T12:41:35;17.25;;;6.45;;
19285;SDS011;9776;50.798;6.430;2023-11-21T12:44:09;18.88;;;6.47;;
19285;SDS011;9776;50.798;6.430;2023-11-21T12:46:41;13.43;;;5.82;;
19285;SDS011;9776;50.798;6.430;2023-11-21T12:49:10;16.70;;;6.15;;
19285;SDS011;9776;50.798;6.430;2023-11-21T12:51:42;13.98;;;5.57;;
19285;SDS011;9776;50.798;6.430;2023-11-21T12:54:10;15.23;;;5.38;;
19285;SDS011;9776;50.798;6.430;2023-11-21T12:56:39;11.80;;;5.35;;
19285;SDS011;9776;50.798;6.430;2023-11-21T12:59:06;16.88;;;5.72;;
19285;SDS011;9776;50.798;6.430;2023-11-21T13:01:36;14.23;;;6.03;;
19285;SDS011;9776;50.798;6.430;2023-11-21T13:04:07;15.23;;;5.85;;
19285;SDS011;9776;50.798;6.430;2023-11-21T13:06:38;14.70;;;5.25;;
19285;SDS011;9776;50.798;6.430;2023-11-21T13:09:06;14.93;;;5.18;;
19285;SDS011;9776;50.798;6.430;2023-11-21T13:11:37;11.88;;;5.60;;
19285;SDS011;9776;50.798;6.430;2023-11-21T13:14:05;14.63;;;5.60;;
19285;SDS011;9776;50.798;6.430;2023-11-21T13:16:32;12.15;;;5.43;;
19285;SDS011;9776;50.798;6.430;2023-11-21T13:19:01;13.60;;;5.97;;
19285;SDS011;9776;50.798;6.430;2023-11-21T13:21:28;14.55;;;7.00;;
19285;SDS011;9776;50.798;6.430;2023-11-21T13:23:55;18.25;;;6.03;;
19285;SDS011;9776;50.798;6.430;2023-11-21T13:26:25;18.00;;;6.88;;
19285;SDS011;9776;50.798;6.430;2023-11-21T13:28:53;18.27;;;7.03;;
19285;SDS011;9776;50.798;6.430;2023-11-21T13:31:21;17.50;;;7.03;;
19285;SDS011;9776;50.798;6.430;2023-11-21T13:33:57;18.55;;;7.60;;
19285;SDS011;9776;50.798;6.430;2023-11-21T13:36:30;19.20;;;7.50;;
19285;SDS011;9776;50.798;6.430;2023-11-21T13:38:58;20.70;;;8.38;;
19285;SDS011;9776;50.798;6.430;2023-11-21T13:41:30;16.00;;;7.18;;
19285;SDS011;9776;50.798;6.430;2023-11-21T13:44:03;21.50;;;8.23;;
19285;SDS011;9776;50.798;6.430;2023-11-21T13:46:40;16.13;;;7.03;;
19285;SDS011;9776;50.798;6.430;2023-11-21T13:49:08;17.15;;;7.30;;
19285;SDS011;9776;50.798;6.430;2023-11-21T13:51:35;15.52;;;6.90;;
19285;SDS011;9776;50.798;6.430;2023-11-21T13:54:05;21.65;;;7.78;;
19285;SDS011;9776;50.798;6.430;2023-11-21T13:56:35;18.17;;;7.25;;
19285;SDS011;9776;50.798;6.430;2023-11-21T13:59:03;21.13;;;6.60;;
19285;SDS011;9776;50.798;6.430;2023-11-21T14:01:42;16.15;;;6.55;;
19285;SDS011;9776;50.798;6.430;2023-11-21T14:04:20;13.50;;;5.95;;
19285;SDS011;9776;50.798;6.430;2023-11-21T14:07:00;13.73;;;5.95;;
19285;SDS011;9776;50.798;6.430;2023-11-21T14:09:44;19.65;;;6.53;;
19285;SDS011;9776;50.798;6.430;2023-11-21T14:12:10;17.63;;;6.22;;
19285;SDS011;9776;50.798;6.430;2023-11-21T14:14:39;15.93;;;7.15;;
19285;SDS011;9776;50.798;6.430;2023-11-21T14:17:06;13.25;;;6.10;;
19285;SDS011;9776;50.798;6.430;2023-11-21T14:19:34;16.40;;;7.03;;
19285;SDS011;9776;50.798;6.430;2023-11-21T14:22:04;15.57;;;6.93;;
19285;SDS011;9776;50.798;6.430;2023-11-21T14:24:31;16.55;;;7.80;;
19285;SDS011;9776;50.798;6.430;2023-11-21T14:26:58;16.70;;;7.88;;
19285;SDS011;9776;50.798;6.430;2023-11-21T14:29:24;16.42;;;7.10;;
19285;SDS011;9776;50.798;6.430;2023-11-21T14:31:54;15.20;;;6.68;;
19285;SDS011;9776;50.798;6.430;2023-11-21T14:34:22;14.15;;;6.32;;
19285;SDS011;9776;50.798;6.430;2023-11-21T14:36:49;14.32;;;6.32;;
19285;SDS011;9776;50.798;6.430;2023-11-21T14:39:16;15.02;;;6.18;;
19285;SDS011;9776;50.798;6.430;2023-11-21T14:41:48;13.98;;;6.68;;
19285;SDS011;9776;50.798;6.430;2023-11-21T14:44:18;16.20;;;7.22;;
19285;SDS011;9776;50.798;6.430;2023-11-21T14:46:45;12.77;;;6.35;;
19285;SDS011;9776;50.798;6.430;2023-11-21T14:49:16;16.50;;;6.80;;
19285;SDS011;9776;50.798;6.430;2023-11-21T14:51:46;12.45;;;6.60;;
19285;SDS011;9776;50.798;6.430;2023-11-21T14:54:26;14.52;;;6.47;;
19285;SDS011;9776;50.798;6.430;2023-11-21T14:57:05;18.25;;;7.35;;
19285;SDS011;9776;50.798;6.430;2023-11-21T14:59:36;18.52;;;7.55;;